Time;durP1;ratioP1;P1;durP2;ratioP2;P2;SDS_P1;SDS_P2;PMS_P1;PMS_P2;Temp;Humidity;BMP_temperature;BMP_pressure;BME280_temperature;BME280_humidity;BME280_pressure;Samples;Min_cycle;Max_cycle;Signal;HPM_P1;HPM_P2
2021/09/05 00:01:28;;;;;;;43.95;24.67;;;16.60;99.90;;;;;;5062109;28;20062;-73
2021/09/05 00:04:00;;;;;;;41.40;23.90;;;16.60;99.90;;;;;;5062146;28;20043;-72
2021/09/05 00:06:28;;;;;;;45.03;24.52;;;16.60;99.90;;;;;;5062331;28;20105;-71
2021/09/05 00:08:55;;;;;;;41.42;24.25;;;16.60;99.90;;;;;;5061341;28;20053;-71
2021/09/05 00:11:22;;;;;;;41.85;23.50;;;16.50;99.90;;;;;;5064709;28;20044;-71
2021/09/05 00:13:51;;;;;;;42.03;25.63;;;16.40;99.90;;;;;;5062675;28;20048;-73
2021/09/05 00:16:18;;;;;;;41.50;24.67;;;16.40;99.90;;;;;;5061702;28;20044;-71
2021/09/05 00:18:45;;;;;;;42.80;24.95;;;16.30;99.90;;;;;;5060388;28;20170;-71
2021/09/05 00:21:12;;;;;;;44.28;24.55;;;16.20;99.90;;;;;;5063507;28;20093;-71
2021/09/05 00:23:39;;;;;;;41.50;24.33;;;16.30;99.90;;;;;;5060658;28;20080;-71
2021/09/05 00:26:06;;;;;;;46.38;25.80;;;16.20;99.90;;;;;;5060049;28;20536;-73
2021/09/05 00:28:33;;;;;;;47.42;25.02;;;16.20;99.90;;;;;;5056780;28;20048;-73
2021/09/05 00:31:02;;;;;;;42.63;25.15;;;16.10;99.90;;;;;;5055693;28;20056;-73
2021/09/05 00:33:29;;;;;;;46.65;25.42;;;16.10;99.90;;;;;;5056123;28;20626;-71
2021/09/05 00:35:56;;;;;;;42.70;25.67;;;16.10;99.90;;;;;;5056721;28;20193;-71
2021/09/05 00:38:23;;;;;;;46.65;26.60;;;16.10;99.90;;;;;;5054844;28;20135;-72
2021/09/05 00:40:50;;;;;;;41.20;25.08;;;16.10;99.90;;;;;;5056126;28;20127;-72
2021/09/05 00:43:17;;;;;;;43.70;24.70;;;16.00;99.90;;;;;;5056840;28;20488;-71
2021/09/05 00:45:44;;;;;;;44.92;26.25;;;16.00;99.90;;;;;;5062236;28;20130;-73
2021/09/05 00:48:13;;;;;;;40.35;24.52;;;16.00;99.90;;;;;;5059209;28;20094;-73
2021/09/05 00:50:40;;;;;;;43.60;25.75;;;15.90;99.90;;;;;;5061312;28;20144;-73
2021/09/05 00:53:08;;;;;;;44.25;25.23;;;15.90;99.90;;;;;;5063056;28;20059;-70
2021/09/05 00:55:37;;;;;;;47.47;26.00;;;15.90;99.90;;;;;;5064381;28;20063;-71
2021/09/05 00:58:06;;;;;;;41.08;24.58;;;16.00;99.90;;;;;;5060003;28;20064;-73
2021/09/05 01:00:33;;;;;;;51.72;26.65;;;15.90;99.90;;;;;;5061958;28;20523;-71
2021/09/05 01:03:00;;;;;;;41.72;25.65;;;15.90;99.90;;;;;;5060053;28;20220;-70
2021/09/05 01:05:30;;;;;;;41.78;24.92;;;15.90;99.90;;;;;;5061218;28;20471;-71
2021/09/05 01:07:57;;;;;;;43.75;24.75;;;15.80;99.90;;;;;;5059080;28;20052;-72
2021/09/05 01:10:25;;;;;;;45.55;26.42;;;15.80;99.90;;;;;;5060998;28;20125;-73
2021/09/05 01:12:52;;;;;;;42.72;24.95;;;15.80;99.90;;;;;;5063079;28;20064;-70
2021/09/05 01:15:19;;;;;;;45.05;25.35;;;15.70;99.90;;;;;;5059620;28;20160;-72
2021/09/05 01:17:46;;;;;;;44.13;27.40;;;15.60;99.90;;;;;;5060398;28;20101;-71
2021/09/05 01:20:13;;;;;;;46.30;27.83;;;15.60;99.90;;;;;;5059361;28;20079;-72
2021/09/05 01:22:42;;;;;;;43.80;25.65;;;15.70;99.90;;;;;;5059267;28;20052;-71
2021/09/05 01:25:10;;;;;;;46.05;26.35;;;15.70;99.90;;;;;;5063175;28;20472;-73
2021/09/05 01:27:38;;;;;;;47.17;27.45;;;15.70;99.90;;;;;;5058974;28;20072;-71
2021/09/05 01:30:06;;;;;;;46.88;26.42;;;15.60;99.90;;;;;;5060943;28;20110;-71
2021/09/05 01:32:33;;;;;;;53.03;27.05;;;15.60;99.90;;;;;;5059988;28;20075;-70
2021/09/05 01:35:01;;;;;;;44.97;26.70;;;15.50;99.90;;;;;;5061738;28;20462;-71
2021/09/05 01:37:29;;;;;;;45.67;26.02;;;15.40;99.90;;;;;;5059748;28;20056;-71
2021/09/05 01:39:56;;;;;;;47.10;26.45;;;15.50;99.90;;;;;;5058417;28;20048;-73
2021/09/05 01:42:23;;;;;;;44.97;25.77;;;15.60;99.90;;;;;;5055940;28;20135;-70
2021/09/05 01:44:51;;;;;;;48.60;26.27;;;15.60;99.90;;;;;;5059196;28;20052;-71
2021/09/05 01:47:18;;;;;;;52.38;27.92;;;15.50;99.90;;;;;;5054532;28;20044;-72
2021/09/05 01:49:45;;;;;;;47.03;27.70;;;15.50;99.90;;;;;;5059899;28;20504;-73
2021/09/05 01:52:12;;;;;;;51.90;27.73;;;15.40;99.90;;;;;;5059100;28;20136;-70
2021/09/05 01:54:40;;;;;;;48.53;26.45;;;15.40;99.90;;;;;;5061277;28;20052;-73
2021/09/05 01:57:07;;;;;;;46.58;26.45;;;15.40;99.90;;;;;;5055878;28;20496;-71
2021/09/05 01:59:34;;;;;;;50.50;28.05;;;15.50;99.90;;;;;;5059552;28;20051;-73
2021/09/05 02:02:02;;;;;;;48.75;27.17;;;15.50;99.90;;;;;;5058576;28;20093;-71
2021/09/05 02:04:29;;;;;;;58.45;29.35;;;15.30;99.90;;;;;;5058215;28;20080;-71
2021/09/05 02:06:56;;;;;;;49.75;28.40;;;15.30;99.90;;;;;;5058361;28;20469;-69
2021/09/05 02:09:23;;;;;;;52.53;28.40;;;15.30;99.90;;;;;;5054904;28;20118;-68
2021/09/05 02:11:51;;;;;;;51.63;28.73;;;15.30;99.90;;;;;;5054717;28;20055;-68
2021/09/05 02:14:18;;;;;;;51.95;28.52;;;15.10;99.90;;;;;;5054568;28;20416;-69
2021/09/05 02:16:45;;;;;;;47.42;26.83;;;15.10;99.90;;;;;;5057258;28;20051;-69
2021/09/05 02:19:14;;;;;;;53.15;30.05;;;15.10;99.90;;;;;;5055155;28;20054;-69
2021/09/05 02:21:41;;;;;;;56.28;29.08;;;15.10;99.90;;;;;;5056947;28;20101;-69
2021/09/05 02:24:08;;;;;;;51.90;29.40;;;15.00;99.90;;;;;;5052846;28;20097;-68
2021/09/05 02:26:35;;;;;;;54.25;29.73;;;14.90;99.90;;;;;;5055621;28;20472;-69
2021/09/05 02:29:02;;;;;;;56.47;29.98;;;15.00;99.90;;;;;;5053436;28;20052;-69
2021/09/05 02:31:28;;;;;;;57.33;31.00;;;14.90;99.90;;;;;;5054823;28;20055;-69
2021/09/05 02:33:55;;;;;;;52.33;29.63;;;14.90;99.90;;;;;;5055954;28;20130;-69
2021/09/05 02:36:25;;;;;;;53.90;29.42;;;14.90;99.90;;;;;;5056820;28;20143;-69
2021/09/05 02:38:52;;;;;;;54.53;30.73;;;15.00;99.90;;;;;;5055259;28;20056;-69
2021/09/05 02:41:19;;;;;;;53.67;29.35;;;14.90;99.90;;;;;;5054029;28;20089;-68
2021/09/05 02:43:46;;;;;;;56.88;30.20;;;14.80;99.90;;;;;;5055582;28;20088;-68
2021/09/05 02:46:13;;;;;;;55.28;30.13;;;14.80;99.90;;;;;;5051635;28;20044;-69
2021/09/05 02:48:40;;;;;;;55.55;30.83;;;14.80;99.90;;;;;;5053530;28;20538;-69
2021/09/05 02:51:07;;;;;;;59.60;30.40;;;14.80;99.90;;;;;;5056321;28;20182;-69
2021/09/05 02:53:35;;;;;;;61.70;30.48;;;14.80;99.90;;;;;;5055851;28;20052;-71
2021/09/05 02:56:02;;;;;;;56.05;30.88;;;14.70;99.90;;;;;;5055690;28;20068;-69
2021/09/05 02:58:29;;;;;;;54.25;28.77;;;14.70;99.90;;;;;;5053191;28;20052;-69
2021/09/05 03:00:56;;;;;;;58.40;31.20;;;14.70;99.90;;;;;;5053404;28;20127;-68
2021/09/05 03:03:23;;;;;;;58.83;30.65;;;14.70;99.90;;;;;;5053425;28;20102;-69
2021/09/05 03:05:50;;;;;;;53.60;29.80;;;14.70;99.90;;;;;;5053932;28;20065;-69
2021/09/05 03:08:17;;;;;;;53.13;29.48;;;14.70;99.90;;;;;;5053430;28;20079;-69
2021/09/05 03:10:46;;;;;;;59.33;30.58;;;14.60;99.90;;;;;;5053108;28;20167;-69
2021/09/05 03:13:13;;;;;;;56.53;30.48;;;14.70;99.90;;;;;;5052669;28;20915;-69
2021/09/05 03:15:40;;;;;;;60.03;31.50;;;14.80;99.90;;;;;;5054623;28;20511;-69
2021/09/05 03:18:07;;;;;;;55.58;29.90;;;14.80;99.90;;;;;;5052131;28;20102;-69
2021/09/05 03:20:33;;;;;;;55.35;29.90;;;14.80;99.90;;;;;;5057155;28;20576;-69
2021/09/05 03:23:01;;;;;;;58.45;29.30;;;14.80;99.90;;;;;;5059081;28;20079;-69
2021/09/05 03:25:28;;;;;;;57.42;30.23;;;14.80;99.90;;;;;;5057932;28;20084;-68
2021/09/05 03:27:56;;;;;;;56.28;29.92;;;14.80;99.90;;;;;;5058818;28;20051;-69
2021/09/05 03:30:23;;;;;;;62.60;30.80;;;14.80;99.90;;;;;;5052587;28;20051;-69
2021/09/05 03:32:50;;;;;;;52.70;27.75;;;14.80;99.90;;;;;;5052446;28;20768;-69
2021/09/05 03:35:17;;;;;;;52.85;28.65;;;14.80;99.90;;;;;;5052254;28;20060;-69
2021/09/05 03:37:44;;;;;;;58.65;30.80;;;14.80;99.90;;;;;;5051133;28;20500;-69
2021/09/05 03:40:12;;;;;;;54.47;29.20;;;14.70;99.90;;;;;;5051048;28;20048;-68
2021/09/05 03:42:39;;;;;;;53.05;29.63;;;14.80;99.90;;;;;;5051737;28;20168;-69
2021/09/05 03:45:08;;;;;;;54.92;29.80;;;14.70;99.90;;;;;;5053286;28;20044;-69
2021/09/05 03:47:35;;;;;;;51.80;29.08;;;14.70;99.90;;;;;;5050851;28;20133;-69
2021/09/05 03:50:02;;;;;;;58.08;30.42;;;14.80;99.90;;;;;;5055561;28;20559;-69
2021/09/05 03:52:32;;;;;;;57.50;29.88;;;14.70;99.90;;;;;;5054530;28;20589;-68
2021/09/05 03:54:59;;;;;;;56.92;29.95;;;14.70;99.90;;;;;;5053731;28;20052;-68
2021/09/05 03:57:26;;;;;;;57.03;30.08;;;14.60;99.90;;;;;;5050954;28;20102;-69
2021/09/05 03:59:53;;;;;;;59.95;31.13;;;14.60;99.90;;;;;;5053706;28;20502;-69
2021/09/05 04:02:21;;;;;;;58.75;30.90;;;14.60;99.90;;;;;;5051781;28;20076;-68
2021/09/05 04:04:48;;;;;;;58.53;30.35;;;14.60;99.90;;;;;;5054686;28;20322;-68
2021/09/05 04:07:18;;;;;;;61.70;28.98;;;14.50;99.90;;;;;;5066605;28;20501;-68
2021/09/05 04:12:29;;;;;;;53.22;29.38;;;14.50;99.90;;;;;;5065325;28;20193;-68
2021/09/05 04:14:56;;;;;;;51.47;27.77;;;14.50;99.90;;;;;;5066507;28;20134;-69
2021/09/05 04:17:25;;;;;;;56.55;29.00;;;14.50;99.90;;;;;;5061805;28;20160;-68
2021/09/05 04:19:51;;;;;;;64.25;31.50;;;14.50;99.90;;;;;;5065686;28;20105;-68
2021/09/05 04:22:19;;;;;;;56.60;29.10;;;14.50;99.90;;;;;;5065689;28;20456;-69
2021/09/05 04:24:45;;;;;;;55.95;30.75;;;14.40;99.90;;;;;;5065403;28;20132;-69
2021/09/05 04:27:12;;;;;;;62.45;31.20;;;14.30;99.90;;;;;;5066101;28;20109;-69
2021/09/05 04:29:39;;;;;;;61.60;30.60;;;14.30;99.90;;;;;;5065423;28;20443;-68
2021/09/05 04:32:07;;;;;;;64.60;31.70;;;14.30;99.90;;;;;;5061046;28;20452;-69
2021/09/05 04:34:36;;;;;;;64.85;30.88;;;14.40;99.90;;;;;;5063596;28;20427;-68
2021/09/05 04:37:03;;;;;;;58.40;29.83;;;14.30;99.90;;;;;;5065326;28;20680;-68
2021/09/05 04:39:30;;;;;;;61.63;30.83;;;14.30;99.90;;;;;;5062559;28;20496;-69
2021/09/05 04:41:57;;;;;;;68.82;33.40;;;14.30;99.90;;;;;;5064116;28;20102;-68
2021/09/05 04:44:24;;;;;;;57.92;29.52;;;14.20;99.90;;;;;;5066051;28;20080;-69
2021/09/05 04:46:51;;;;;;;61.92;31.23;;;14.20;99.90;;;;;;5062152;28;20492;-68
2021/09/05 04:49:18;;;;;;;59.50;31.48;;;14.20;99.90;;;;;;5065196;28;20049;-68
2021/09/05 04:51:46;;;;;;;59.83;30.65;;;14.20;99.90;;;;;;5064136;28;20478;-68
2021/09/05 04:54:13;;;;;;;55.67;29.55;;;14.30;99.90;;;;;;5064073;28;20079;-69
2021/09/05 04:56:43;;;;;;;60.15;30.67;;;14.30;99.90;;;;;;5063556;28;20101;-69
2021/09/05 04:59:10;;;;;;;60.33;29.33;;;14.30;99.90;;;;;;5063696;28;20044;-68
2021/09/05 05:01:37;;;;;;;58.15;30.25;;;14.30;99.90;;;;;;5064928;28;20051;-69
2021/09/05 05:04:04;;;;;;;57.95;29.88;;;14.30;99.90;;;;;;5065252;28;20080;-69
2021/09/05 05:06:32;;;;;;;51.72;27.83;;;14.40;99.90;;;;;;5065850;28;20068;-69
2021/09/05 05:09:00;;;;;;;59.60;28.92;;;14.40;99.90;;;;;;5061413;28;20466;-68
2021/09/05 05:11:27;;;;;;;53.92;27.73;;;14.40;99.90;;;;;;5065728;28;20165;-69
2021/09/05 05:13:54;;;;;;;56.38;28.92;;;14.30;99.90;;;;;;5064131;28;20113;-69
2021/09/05 05:16:22;;;;;;;56.25;28.38;;;14.30;99.90;;;;;;5062128;28;20429;-69
2021/09/05 05:18:50;;;;;;;52.55;28.50;;;14.30;99.90;;;;;;5064845;28;20048;-69
2021/09/05 05:21:17;;;;;;;55.83;30.02;;;14.40;99.90;;;;;;5061705;28;20084;-69
2021/09/05 05:23:44;;;;;;;60.53;31.83;;;14.40;99.90;;;;;;5061800;28;20072;-69
2021/09/05 05:26:12;;;;;;;57.33;30.08;;;14.40;99.90;;;;;;5064122;28;20128;-68
2021/09/05 05:28:39;;;;;;;54.88;29.15;;;14.40;99.90;;;;;;5062212;28;20101;-69
2021/09/05 05:31:06;;;;;;;58.25;31.38;;;14.50;99.90;;;;;;5061748;28;20129;-68
2021/09/05 05:33:33;;;;;;;55.92;29.58;;;14.40;99.90;;;;;;5064830;28;20125;-68
2021/09/05 05:36:00;;;;;;;56.15;28.70;;;14.40;99.90;;;;;;5064127;28;20455;-69
2021/09/05 05:38:27;;;;;;;64.32;29.85;;;14.30;99.90;;;;;;5068427;28;20055;-68
2021/09/05 05:40:54;;;;;;;54.13;29.80;;;14.40;99.90;;;;;;5070663;28;20048;-69
2021/09/05 05:43:22;;;;;;;54.90;29.38;;;14.50;99.90;;;;;;5073936;28;20054;-69
2021/09/05 05:45:49;;;;;;;50.33;27.42;;;14.40;99.90;;;;;;5074867;28;20097;-68
2021/09/05 05:48:16;;;;;;;56.13;28.70;;;14.50;99.90;;;;;;5074187;28;20044;-68
2021/09/05 05:50:45;;;;;;;48.75;26.42;;;14.50;99.90;;;;;;5075538;28;20070;-69
2021/09/05 05:53:12;;;;;;;60.45;29.42;;;14.60;99.90;;;;;;5074675;28;20052;-68
2021/09/05 05:55:39;;;;;;;57.88;29.33;;;14.60;99.90;;;;;;5074967;28;20073;-68
2021/09/05 05:58:06;;;;;;;55.17;28.92;;;14.60;99.90;;;;;;5060606;28;20048;-68
2021/09/05 06:00:35;;;;;;;59.15;28.63;;;14.50;99.90;;;;;;5064852;28;20085;-69
2021/09/05 06:03:02;;;;;;;52.63;28.17;;;14.60;99.90;;;;;;5063783;28;20055;-68
2021/09/05 06:05:29;;;;;;;60.35;29.83;;;14.60;99.90;;;;;;5061077;28;20109;-69
2021/09/05 06:07:56;;;;;;;51.20;28.38;;;14.80;99.90;;;;;;5063559;28;20052;-72
2021/09/05 06:10:23;;;;;;;53.47;28.55;;;14.70;99.90;;;;;;5063899;28;20182;-71
2021/09/05 06:12:50;;;;;;;55.58;28.88;;;14.80;99.90;;;;;;5063755;28;20083;-70
2021/09/05 06:15:17;;;;;;;54.83;28.52;;;14.80;99.90;;;;;;5062294;28;20137;-70
2021/09/05 06:17:45;;;;;;;47.42;26.95;;;14.80;99.90;;;;;;5065011;28;20048;-70
2021/09/05 06:20:13;;;;;;;52.67;27.38;;;15.00;99.90;;;;;;5064471;28;20044;-70
2021/09/05 06:22:40;;;;;;;52.20;27.92;;;15.00;99.90;;;;;;5066003;28;20052;-71
2021/09/05 06:25:08;;;;;;;52.40;27.13;;;15.10;99.90;;;;;;5065263;28;20371;-73
2021/09/05 06:27:35;;;;;;;51.22;27.98;;;15.20;99.90;;;;;;5067837;28;20116;-70
2021/09/05 06:30:02;;;;;;;55.22;28.33;;;15.20;99.90;;;;;;5068069;28;20048;-72
2021/09/05 06:32:29;;;;;;;49.13;26.63;;;15.30;99.90;;;;;;5068438;28;20052;-70
2021/09/05 06:34:57;;;;;;;45.85;24.83;;;15.30;99.90;;;;;;5067220;28;20047;-70
2021/09/05 06:37:24;;;;;;;44.85;25.55;;;15.40;99.90;;;;;;5067715;28;20102;-73
2021/09/05 06:39:52;;;;;;;47.53;25.08;;;15.50;99.90;;;;;;5066567;28;20098;-72
2021/09/05 06:42:19;;;;;;;46.05;25.48;;;15.60;99.90;;;;;;5068188;28;20071;-72
2021/09/05 06:44:46;;;;;;;44.58;25.25;;;15.60;99.90;;;;;;5069717;28;20426;-70
2021/09/05 06:47:13;;;;;;;51.42;26.40;;;15.70;99.90;;;;;;5067021;28;20105;-70
2021/09/05 06:49:40;;;;;;;45.83;24.95;;;15.80;99.90;;;;;;5066677;28;20076;-71
2021/09/05 06:52:08;;;;;;;45.42;26.10;;;15.80;99.90;;;;;;5066205;28;20059;-71
2021/09/05 06:54:35;;;;;;;43.85;24.45;;;15.80;99.90;;;;;;5067217;28;20213;-70
2021/09/05 06:57:04;;;;;;;50.97;24.65;;;15.90;99.90;;;;;;5071651;28;20544;-71
2021/09/05 06:59:31;;;;;;;41.53;24.23;;;16.00;99.90;;;;;;5069597;28;20048;-71
2021/09/05 07:01:58;;;;;;;45.55;24.15;;;16.00;99.90;;;;;;5068882;28;20122;-73
2021/09/05 07:04:25;;;;;;;44.05;24.98;;;16.10;99.90;;;;;;5070272;28;20114;-73
2021/09/05 07:06:52;;;;;;;42.13;24.83;;;16.00;99.90;;;;;;5072967;28;20084;-71
2021/09/05 07:09:20;;;;;;;41.33;24.10;;;16.20;99.90;;;;;;5070456;28;20080;-72
2021/09/05 07:11:47;;;;;;;43.92;24.13;;;16.20;99.90;;;;;;5073327;28;20044;-73
2021/09/05 07:14:14;;;;;;;38.55;22.77;;;16.30;99.90;;;;;;5070981;28;20056;-71
2021/09/05 07:16:41;;;;;;;46.78;27.05;;;16.30;99.90;;;;;;5072705;28;20083;-73
2021/09/05 07:19:08;;;;;;;41.30;23.73;;;16.30;99.90;;;;;;5069562;28;20048;-71
2021/09/05 07:21:35;;;;;;;40.20;24.20;;;16.40;99.90;;;;;;5073198;28;20139;-71
2021/09/05 07:24:02;;;;;;;42.85;23.88;;;16.60;99.90;;;;;;5069873;28;20079;-72
2021/09/05 07:26:30;;;;;;;41.55;23.13;;;16.60;99.90;;;;;;5073951;28;20524;-71
2021/09/05 07:28:57;;;;;;;44.03;24.38;;;16.70;99.90;;;;;;5070544;28;20138;-71
2021/09/05 07:31:24;;;;;;;38.28;22.42;;;16.80;99.90;;;;;;5073326;28;20508;-71
2021/09/05 07:33:51;;;;;;;44.58;25.02;;;16.90;99.90;;;;;;5071835;28;20101;-71
2021/09/05 07:36:18;;;;;;;42.72;23.83;;;17.00;99.90;;;;;;5070726;28;20076;-73
2021/09/05 07:38:45;;;;;;;38.55;22.80;;;17.10;99.90;;;;;;5075419;28;20044;-71
2021/09/05 07:41:13;;;;;;;39.22;22.10;;;17.10;99.90;;;;;;5073326;28;20097;-71
2021/09/05 07:43:42;;;;;;;37.60;22.77;;;17.30;99.90;;;;;;5070744;28;20050;-73
2021/09/05 07:46:09;;;;;;;35.85;22.33;;;17.30;99.90;;;;;;5071391;28;20040;-73
2021/09/05 07:48:36;;;;;;;38.00;22.30;;;17.50;99.90;;;;;;5070011;28;20047;-73
2021/09/05 07:51:03;;;;;;;37.28;22.25;;;17.60;99.90;;;;;;5073197;28;20080;-71
2021/09/05 07:53:30;;;;;;;38.45;23.20;;;17.80;99.90;;;;;;5069098;28;20056;-71
2021/09/05 07:55:57;;;;;;;35.05;20.92;;;17.90;99.90;;;;;;5068061;28;20075;-71
2021/09/05 07:58:25;;;;;;;38.67;21.92;;;18.10;99.90;;;;;;5070638;28;20109;-72
2021/09/05 08:00:53;;;;;;;40.42;22.27;;;18.30;99.90;;;;;;5068075;28;20045;-71
2021/09/05 08:03:20;;;;;;;35.70;21.40;;;18.40;99.90;;;;;;5068545;28;20048;-71
2021/09/05 08:05:47;;;;;;;34.95;21.73;;;18.50;99.90;;;;;;5065956;28;20052;-71
2021/09/05 08:08:16;;;;;;;35.80;20.45;;;18.70;99.90;;;;;;5066946;28;20056;-72
2021/09/05 08:10:43;;;;;;;34.40;21.25;;;18.80;99.90;;;;;;5067846;28;20462;-71
2021/09/05 08:13:10;;;;;;;34.75;20.48;;;18.80;99.90;;;;;;5065182;28;20048;-70
2021/09/05 08:15:37;;;;;;;32.47;19.88;;;18.90;99.90;;;;;;5067142;28;20048;-71
2021/09/05 08:18:05;;;;;;;34.50;20.48;;;19.00;99.90;;;;;;5066983;28;20137;-71
2021/09/05 08:20:33;;;;;;;32.30;20.38;;;19.20;99.90;;;;;;5066767;28;20088;-72
2021/09/05 08:22:59;;;;;;;33.08;20.83;;;19.60;99.90;;;;;;5066722;28;20052;-72
2021/09/05 08:25:26;;;;;;;31.40;19.50;;;19.80;99.90;;;;;;5067874;28;20473;-71
2021/09/05 08:27:56;;;;;;;31.10;20.10;;;20.30;99.90;;;;;;5064737;28;20083;-73
2021/09/05 08:30:24;;;;;;;32.17;20.60;;;21.00;99.90;;;;;;5067929;28;20717;-71
2021/09/05 08:32:51;;;;;;;27.05;17.13;;;21.70;99.90;;;;;;5065758;28;20416;-72
2021/09/05 08:35:20;;;;;;;23.17;16.10;;;22.90;99.90;;;;;;5070141;28;20507;-73
2021/09/05 08:37:46;;;;;;;24.55;16.75;;;24.30;99.90;;;;;;5067990;28;20055;-72
2021/09/05 08:40:14;;;;;;;24.52;16.52;;;25.00;99.90;;;;;;5067795;28;20092;-71
2021/09/05 08:42:41;;;;;;;21.70;15.32;;;26.00;99.90;;;;;;5065758;28;20060;-74
2021/09/05 08:45:09;;;;;;;24.00;15.88;;;27.00;99.90;;;;;;5064217;28;20075;-71
2021/09/05 08:47:36;;;;;;;22.05;15.18;;;27.60;99.90;;;;;;5064597;28;20193;-72
2021/09/05 08:50:06;;;;;;;19.83;15.60;;;28.20;99.90;;;;;;5066897;28;20044;-72
2021/09/05 08:52:34;;;;;;;22.40;15.63;;;28.90;99.90;;;;;;5057235;28;20197;-74
2021/09/05 08:55:02;;;;;;;18.63;15.13;;;29.50;99.90;;;;;;5057903;28;20094;-72
2021/09/05 08:57:31;;;;;;;19.13;15.60;;;29.80;99.90;;;;;;5061923;28;20736;-72
2021/09/05 08:59:58;;;;;;;21.33;15.65;;;29.90;99.90;;;;;;5064797;28;20122;-72
2021/09/05 09:02:25;;;;;;;18.10;14.77;;;30.40;99.90;;;;;;5065154;28;20875;-72
2021/09/05 09:04:54;;;;;;;17.95;13.93;;;30.70;99.90;;;;;;5062151;28;20044;-71
2021/09/05 09:07:21;;;;;;;21.98;16.20;;;31.10;99.90;;;;;;5064251;28;20127;-72
2021/09/05 09:09:58;;;;;;;19.00;15.35;;;31.30;99.90;;;;;;5064489;28;20134;-74
2021/09/05 09:12:39;;;;;;;18.77;14.75;;;31.30;99.90;;;;;;5063888;28;20056;-72
2021/09/05 09:15:20;;;;;;;17.50;14.60;;;31.90;99.90;;;;;;5063504;28;20048;-72
2021/09/05 09:17:50;;;;;;;15.95;13.43;;;32.40;99.90;;;;;;5061682;28;20051;-75
2021/09/05 09:20:31;;;;;;;16.90;13.25;;;32.90;99.90;;;;;;5061888;28;20180;-72
2021/09/05 09:23:12;;;;;;;16.77;14.10;;;33.60;99.80;;;;;;5066847;28;20083;-73
2021/09/05 09:25:55;;;;;;;17.02;13.10;;;34.00;98.50;;;;;;5062218;28;20075;-75
2021/09/05 09:28:41;;;;;;;15.52;13.43;;;34.00;97.00;;;;;;5063185;28;20131;-72
2021/09/05 09:31:15;;;;;;;17.98;14.43;;;34.30;96.50;;;;;;5062665;28;20056;-70
2021/09/05 09:33:43;;;;;;;15.80;12.43;;;34.80;94.90;;;;;;5062524;28;20500;-69
2021/09/05 09:36:13;;;;;;;15.55;12.73;;;34.80;94.70;;;;;;5059743;28;20105;-70
2021/09/05 09:38:42;;;;;;;14.70;13.05;;;34.60;93.80;;;;;;5059884;28;20785;-70
2021/09/05 09:41:13;;;;;;;16.80;13.18;;;34.90;93.00;;;;;;5063004;28;20044;-70
2021/09/05 09:43:51;;;;;;;16.00;11.65;;;35.30;91.70;;;;;;5061008;28;20044;-70
2021/09/05 09:46:21;;;;;;;13.73;11.27;;;35.50;91.00;;;;;;5052610;28;20145;-70
2021/09/05 09:48:50;;;;;;;14.25;12.75;;;35.60;91.20;;;;;;5054299;28;20052;-70
2021/09/05 09:51:18;;;;;;;14.48;11.60;;;35.50;89.50;;;;;;5057405;28;20105;-70
2021/09/05 09:53:46;;;;;;;14.43;12.25;;;35.60;87.90;;;;;;5060442;28;20048;-69
2021/09/05 09:56:17;;;;;;;19.20;11.98;;;35.20;88.10;;;;;;5063215;28;20048;-70
2021/09/05 09:58:44;;;;;;;16.33;12.23;;;36.00;87.20;;;;;;5060701;28;20048;-69
2021/09/05 10:01:14;;;;;;;15.85;12.55;;;36.00;86.40;;;;;;5059942;28;20497;-70
2021/09/05 10:03:42;;;;;;;15.20;12.38;;;36.60;84.40;;;;;;5059544;28;20041;-69
2021/09/05 10:06:10;;;;;;;15.55;12.82;;;36.40;83.30;;;;;;5058825;28;20492;-69
2021/09/05 10:08:39;;;;;;;15.95;12.82;;;36.10;83.60;;;;;;5058681;28;20557;-70
2021/09/05 10:11:09;;;;;;;14.85;11.77;;;35.90;80.30;;;;;;5061199;28;20117;-70
2021/09/05 10:13:39;;;;;;;13.82;10.68;;;36.20;82.50;;;;;;5054929;28;20062;-70
2021/09/05 10:16:07;;;;;;;14.30;11.70;;;36.70;81.00;;;;;;5053213;28;20043;-70
2021/09/05 10:18:35;;;;;;;16.70;11.82;;;36.70;79.00;;;;;;5053821;28;20135;-70
2021/09/05 10:21:04;;;;;;;13.25;11.27;;;35.70;79.50;;;;;;5050560;28;20056;-70
2021/09/05 10:23:33;;;;;;;11.65;9.60;;;35.80;80.70;;;;;;5050357;28;20048;-70
2021/09/05 10:26:06;;;;;;;13.88;10.85;;;36.20;80.40;;;;;;5052843;28;20118;-70
2021/09/05 10:28:35;;;;;;;13.50;10.15;;;36.50;78.10;;;;;;5051233;28;20368;-70
2021/09/05 10:31:04;;;;;;;12.68;10.55;;;36.50;78.30;;;;;;5054698;28;20097;-70
2021/09/05 10:33:33;;;;;;;12.70;9.48;;;36.90;77.40;;;;;;5050216;28;20090;-70
2021/09/05 10:36:06;;;;;;;11.50;9.77;;;37.40;76.90;;;;;;5050865;28;20492;-70
2021/09/05 10:38:34;;;;;;;14.88;9.65;;;37.40;75.70;;;;;;5055687;28;20068;-70
2021/09/05 10:41:03;;;;;;;14.15;8.93;;;37.40;72.70;;;;;;5056005;28;20080;-70
2021/09/05 10:44:09;;;;;;;11.32;8.80;;;37.00;70.50;;;;;;5056482;28;20080;-70
2021/09/05 10:46:42;;;;;;;12.75;9.52;;;36.90;71.00;;;;;;5058422;28;20522;-70
2021/09/05 10:49:10;;;;;;;13.45;9.88;;;37.20;71.30;;;;;;5059412;28;20144;-70
2021/09/05 10:51:40;;;;;;;10.70;7.85;;;37.20;71.90;;;;;;5059657;28;20113;-70
2021/09/05 10:54:09;;;;;;;12.95;8.23;;;37.60;71.10;;;;;;5057506;28;20048;-70
2021/09/05 10:56:40;;;;;;;10.85;8.93;;;38.20;70.70;;;;;;5058768;28;20084;-70
2021/09/05 10:59:08;;;;;;;12.93;10.23;;;37.80;68.50;;;;;;5057149;28;20040;-70
2021/09/05 11:01:38;;;;;;;12.18;9.20;;;37.00;68.40;;;;;;5057701;28;20044;-70
2021/09/05 11:04:28;;;;;;;12.65;9.43;;;36.70;69.00;;;;;;5057311;28;20496;-70
2021/09/05 11:07:05;;;;;;;11.48;8.40;;;36.40;69.40;;;;;;5055383;28;20044;-70
2021/09/05 11:09:56;;;;;;;12.05;9.30;;;37.00;71.60;;;;;;5060008;28;20132;-70
2021/09/05 11:12:44;;;;;;;17.38;9.43;;;37.70;68.20;;;;;;5057699;28;20056;-70
2021/09/05 11:15:21;;;;;;;17.55;8.73;;;37.50;67.40;;;;;;5060195;28;20059;-70
2021/09/05 11:17:59;;;;;;;11.75;8.80;;;37.30;68.70;;;;;;5064994;28;20060;-74
2021/09/05 11:20:32;;;;;;;16.10;9.02;;;37.80;67.10;;;;;;5065683;28;20135;-71
2021/09/05 11:23:08;;;;;;;12.20;9.15;;;37.20;67.70;;;;;;5065172;28;20052;-73
2021/09/05 11:25:39;;;;;;;;;;;36.20;68.00;;;;;;5063003;28;20513;-70
2021/09/05 11:28:07;;;;;;;11.65;8.55;;;35.40;68.90;;;;;;5059672;28;19926;-70
2021/09/05 11:30:36;;;;;;;12.00;9.35;;;35.70;68.90;;;;;;5060912;28;20052;-70
2021/09/05 11:33:07;;;;;;;12.23;8.80;;;35.60;68.10;;;;;;5058598;28;20056;-70
2021/09/05 11:35:39;;;;;;;11.52;8.02;;;36.00;67.80;;;;;;5060343;28;20052;-70
2021/09/05 11:38:06;;;;;;;11.05;9.05;;;35.30;68.80;;;;;;5057261;28;20053;-70
2021/09/05 11:40:42;;;;;;;12.10;8.10;;;35.10;68.20;;;;;;5058413;28;20048;-70
2021/09/05 11:43:09;;;;;;;12.52;9.05;;;34.90;68.30;;;;;;5062041;28;20523;-69
2021/09/05 11:45:39;;;;;;;10.68;8.18;;;34.40;68.80;;;;;;5062644;28;20424;-70
2021/09/05 11:48:08;;;;;;;14.10;8.43;;;35.20;68.00;;;;;;5063884;28;20817;-70
2021/09/05 11:50:37;;;;;;;13.43;9.15;;;34.70;68.20;;;;;;5065632;28;20147;-70
2021/09/05 11:53:06;;;;;;;10.93;7.85;;;35.60;69.70;;;;;;5063196;28;20492;-70
2021/09/05 11:55:33;;;;;;;12.50;8.63;;;36.60;70.00;;;;;;5064952;28;20772;-70
2021/09/05 11:58:02;;;;;;;11.90;8.82;;;36.90;68.30;;;;;;5059243;28;20088;-70
2021/09/05 12:00:31;;;;;;;12.43;8.70;;;36.90;66.30;;;;;;5062652;28;20063;-70
2021/09/05 12:02:59;;;;;;;9.95;7.78;;;37.80;66.10;;;;;;5053025;28;20458;-69
2021/09/05 12:05:28;;;;;;;16.33;7.80;;;36.20;65.10;;;;;;5049854;28;20153;-70
2021/09/05 12:07:55;;;;;;;11.40;7.65;;;36.60;65.10;;;;;;5056258;28;20044;-70
2021/09/05 12:10:24;;;;;;;11.15;7.55;;;35.70;65.10;;;;;;5056249;28;20063;-70
2021/09/05 12:13:00;;;;;;;10.70;7.65;;;35.50;65.60;;;;;;5059583;28;20048;-69
2021/09/05 12:15:32;;;;;;;12.60;7.50;;;35.80;65.30;;;;;;5059510;28;20066;-70
2021/09/05 12:17:59;;;;;;;9.63;7.53;;;35.70;64.50;;;;;;5065033;28;20591;-69
2021/09/05 12:20:40;;;;;;;8.75;6.95;;;36.30;64.60;;;;;;5065579;28;20131;-70
2021/09/05 12:23:34;;;;;;;9.50;6.88;;;36.30;65.20;;;;;;5069190;28;20048;-70
2021/09/05 12:26:15;;;;;;;10.30;6.97;;;36.70;62.40;;;;;;5056079;28;20063;-69
2021/09/05 12:28:42;;;;;;;11.70;6.97;;;36.10;64.90;;;;;;5059051;28;20064;-70
2021/09/05 12:31:10;;;;;;;10.50;6.40;;;36.70;65.70;;;;;;5064711;28;20128;-70
2021/09/05 12:33:39;;;;;;;8.68;5.85;;;36.50;62.50;;;;;;5057859;28;20059;-70
2021/09/05 12:36:16;;;;;;;7.68;6.05;;;37.10;61.60;;;;;;5057295;28;20552;-70
2021/09/05 12:38:52;;;;;;;11.10;6.13;;;37.60;62.70;;;;;;5050698;28;20131;-70